Time;durP1;ratioP1;P1;durP2;ratioP2;P2;SDS_P1;SDS_P2;PMS_P1;PMS_P2;Temp;Humidity;BMP_temperature;BMP_pressure;BME280_temperature;BME280_humidity;BME280_pressure;Samples;Min_cycle;Max_cycle;Signal;HPM_P1;HPM_P2
2022/01/11 00:01:15;;;;;;;23.67;16.87;;;5.90;79.70;;;8.67;60.70;103018.25;5073355;28;20232;-62
2022/01/11 00:03:46;;;;;;;27.60;17.20;;;5.90;78.90;;;8.61;60.82;103018.66;5073025;28;20240;-62
2022/01/11 00:06:49;;;;;;;25.93;16.63;;;5.90;78.80;;;8.60;60.81;103022.25;5073559;28;20197;-61
2022/01/11 00:09:19;;;;;;;25.17;18.17;;;5.80;78.80;;;8.59;60.76;103017.94;5073506;28;20205;-63
2022/01/11 00:11:46;;;;;;;19.97;15.10;;;5.80;78.90;;;8.57;60.71;103014.59;5073443;28;20222;-59
2022/01/11 00:14:14;;;;;;;21.17;15.40;;;5.80;78.80;;;8.55;60.45;103014.69;5072991;28;20302;-62
2022/01/11 00:16:42;;;;;;;24.60;18.37;;;5.80;78.90;;;8.54;60.73;103017.41;5073520;28;20188;-61
2022/01/11 00:19:13;;;;;;;24.63;19.70;;;5.70;78.80;;;8.50;60.69;103015.94;5073576;28;20221;-60
2022/01/11 00:21:46;;;;;;;26.60;19.13;;;5.70;78.90;;;8.48;60.87;103013.44;5073586;28;20200;-61
2022/01/11 00:24:33;;;;;;;27.53;18.60;;;5.70;78.90;;;8.46;60.76;103020.56;5073003;28;20302;-59
2022/01/11 00:27:04;;;;;;;24.60;18.20;;;5.70;78.90;;;8.42;61.15;103028.75;5073246;28;20190;-60
2022/01/11 00:29:35;;;;;;;24.67;18.93;;;5.70;79.00;;;8.40;61.19;103025.38;5073025;28;20205;-60
2022/01/11 00:32:08;;;;;;;26.87;20.57;;;5.70;79.00;;;8.38;60.96;103032.53;5073395;28;20559;-61
2022/01/11 00:34:48;;;;;;;25.40;18.77;;;5.60;79.10;;;8.34;60.92;103041.56;5072666;28;20214;-61
2022/01/11 00:37:17;;;;;;;27.20;19.30;;;5.60;79.10;;;8.31;61.35;103033.88;5073260;28;20190;-60
2022/01/11 00:39:45;;;;;;;25.43;18.73;;;5.60;79.00;;;8.29;61.24;103043.66;5073308;28;20191;-61
2022/01/11 00:42:14;;;;;;;24.43;18.57;;;5.50;79.10;;;8.27;61.10;103040.28;5073359;28;20181;-59
2022/01/11 00:44:41;;;;;;;23.97;18.93;;;5.50;79.10;;;8.25;61.08;103036.91;5073027;28;20219;-60
2022/01/11 00:47:09;;;;;;;25.43;19.30;;;5.50;79.20;;;8.22;61.09;103042.34;5073130;28;20195;-60
2022/01/11 00:49:40;;;;;;;29.40;18.33;;;5.50;79.30;;;8.18;61.05;103037.28;5072825;28;20300;-61
2022/01/11 00:52:08;;;;;;;28.63;19.43;;;5.50;79.30;;;8.13;61.29;103038.53;5073274;28;20206;-62
2022/01/11 00:54:36;;;;;;;29.73;18.20;;;5.40;79.10;;;8.07;61.25;103045.03;5072582;28;20691;-62
2022/01/11 00:57:04;;;;;;;24.97;18.70;;;5.40;79.00;;;8.05;61.19;103052.19;5073350;28;20272;-60
2022/01/11 00:59:31;;;;;;;24.47;19.80;;;5.40;79.10;;;8.03;61.39;103047.97;5088979;28;20215;-63
2022/01/11 01:01:59;;;;;;;23.13;18.53;;;5.40;79.10;;;8.02;61.47;103044.50;5075502;28;20190;-61
2022/01/11 01:04:26;;;;;;;26.90;19.07;;;5.40;79.20;;;8.00;61.57;103046.38;5076523;28;20209;-62
2022/01/11 01:06:55;;;;;;;22.37;18.60;;;5.30;79.10;;;7.98;61.55;103053.53;5076927;28;20268;-60
2022/01/11 01:09:25;;;;;;;26.60;18.93;;;5.30;79.20;;;7.96;61.57;103052.75;5076815;28;20196;-56
2022/01/11 01:11:53;;;;;;;24.47;17.67;;;5.30;79.20;;;7.95;61.47;103055.47;5076788;28;20198;-62
2022/01/11 01:14:26;;;;;;;26.37;18.80;;;5.20;79.20;;;7.92;61.49;103051.28;5075851;28;20266;-62
2022/01/11 01:16:53;;;;;;;23.50;19.67;;;5.20;79.20;;;7.91;61.24;103054.00;5074793;28;20207;-63
2022/01/11 01:19:21;;;;;;;25.50;19.30;;;5.20;79.20;;;7.88;61.46;103056.81;5076400;28;20197;-58
2022/01/11 01:21:49;;;;;;;25.80;18.63;;;5.20;79.30;;;7.90;61.88;103057.56;5076720;28;20189;-60
2022/01/11 01:24:18;;;;;;;20.03;16.53;;;5.10;79.60;;;7.95;61.49;103064.19;5076050;28;20295;-58
2022/01/11 01:26:45;;;;;;;20.63;17.17;;;5.20;79.90;;;7.97;60.72;103064.94;5076124;28;20192;-59
2022/01/11 01:29:13;;;;;;;21.33;16.57;;;5.20;79.80;;;7.96;61.11;103067.66;5091624;28;20197;-62
2022/01/11 01:31:40;;;;;;;25.00;18.73;;;5.20;79.60;;;7.93;61.24;103071.31;5076297;28;20224;-62
2022/01/11 01:34:07;;;;;;;22.50;19.03;;;5.20;79.40;;;7.92;61.26;103074.03;5075592;28;20669;-61
2022/01/11 01:36:35;;;;;;;19.87;16.30;;;5.20;79.20;;;7.90;61.24;103068.91;5076557;28;20193;-61
2022/01/11 01:39:03;;;;;;;26.00;16.73;;;5.20;79.20;;;7.92;61.34;103071.41;5075820;28;20187;-62
2022/01/11 01:41:33;;;;;;;24.53;18.37;;;5.10;79.10;;;7.93;60.96;103080.97;5075858;28;20199;-61
2022/01/11 01:44:02;;;;;;;22.80;17.17;;;5.20;79.20;;;7.93;61.19;103084.44;5075762;28;20210;-60
2022/01/11 01:46:30;;;;;;;29.03;19.80;;;5.10;79.20;;;7.93;60.88;103083.59;5076131;28;20223;-59
2022/01/11 01:49:00;;;;;;;25.27;18.50;;;5.10;79.00;;;7.92;60.82;103087.97;5076118;28;20191;-62
2022/01/11 01:51:28;;;;;;;25.77;19.20;;;5.10;78.80;;;7.90;60.63;103089.88;5076245;28;20185;-61
2022/01/11 01:53:56;;;;;;;26.00;18.20;;;5.10;78.70;;;7.85;60.67;103089.31;5075411;28;20218;-61
2022/01/11 01:56:25;;;;;;;25.43;17.30;;;5.10;78.70;;;7.78;60.63;103093.28;5075541;28;20681;-60
2022/01/11 01:58:55;;;;;;;27.27;17.87;;;5.00;78.60;;;7.69;60.71;103091.25;5075927;28;20195;-62
2022/01/11 02:01:22;;;;;;;28.17;18.93;;;5.00;78.50;;;7.59;60.98;103100.63;5075416;28;20565;-62
2022/01/11 02:03:50;;;;;;;27.63;19.47;;;5.00;78.50;;;7.50;60.77;103111.69;5075362;28;20201;-62
2022/01/11 02:06:20;;;;;;;31.67;17.83;;;4.90;78.40;;;7.44;61.29;103117.31;5076145;28;20192;-59
2022/01/11 02:08:50;;;;;;;25.20;17.30;;;4.90;78.50;;;7.39;61.08;103109.72;5075387;28;20580;-60
2022/01/11 02:11:19;;;;;;;27.20;17.87;;;4.80;78.40;;;7.37;61.65;103118.63;5075322;28;20200;-58
2022/01/11 02:13:48;;;;;;;22.70;16.20;;;4.80;78.40;;;7.36;61.16;103119.56;5075050;28;20239;-60
2022/01/11 02:16:20;;;;;;;27.33;17.13;;;4.70;78.60;;;7.40;61.47;103119.28;5075877;28;20662;-61
2022/01/11 02:18:47;;;;;;;19.77;14.23;;;4.70;79.10;;;7.47;61.45;103130.22;5076242;28;20181;-58
2022/01/11 02:21:17;;;;;;;21.57;16.83;;;4.70;79.30;;;7.56;61.16;103126.19;5075964;28;20190;-61
2022/01/11 02:23:45;;;;;;;18.13;14.07;;;4.70;79.60;;;7.62;61.13;103136.28;5074953;28;20654;-61
2022/01/11 02:26:12;;;;;;;24.13;16.03;;;4.80;79.30;;;7.62;60.08;103131.03;5075334;28;20686;-59
2022/01/11 02:28:40;;;;;;;21.70;15.47;;;4.80;78.40;;;7.57;60.13;103139.19;5075554;28;20511;-59
2022/01/11 02:31:12;;;;;;;28.33;15.60;;;4.80;78.20;;;7.53;59.61;103136.84;5075457;28;20235;-55
2022/01/11 02:33:44;;;;;;;22.33;15.40;;;4.70;77.50;;;7.49;59.41;103139.66;5074538;28;20247;-59
2022/01/11 02:36:18;;;;;;;17.27;12.97;;;4.70;77.30;;;7.48;59.50;103140.63;5075259;28;20241;-62
2022/01/11 02:38:47;;;;;;;28.33;14.07;;;4.60;77.40;;;7.46;59.50;103141.66;5055154;28;20205;-61
2022/01/11 02:41:15;;;;;;;33.77;15.30;;;4.60;78.10;;;7.34;59.12;103131.91;5055223;28;20660;-62
2022/01/11 02:43:46;;;;;;;17.43;12.80;;;4.50;76.50;;;7.25;59.35;103148.19;5065923;28;20222;-60
2022/01/11 02:46:15;;;;;;;19.73;14.53;;;4.50;76.60;;;7.12;59.03;103142.00;5074419;28;20579;-61
2022/01/11 02:48:42;;;;;;;28.53;14.10;;;4.40;76.20;;;7.02;59.42;103146.13;5074758;28;20665;-62
2022/01/11 02:51:10;;;;;;;36.37;13.03;;;4.40;76.30;;;6.98;59.73;103144.63;5074472;28;20195;-61
2022/01/11 02:53:41;;;;;;;15.00;12.00;;;4.20;76.40;;;6.97;59.85;103142.91;5074226;28;20702;-61
2022/01/11 02:56:09;;;;;;;17.73;13.70;;;4.20;76.90;;;6.98;59.87;103139.38;5075275;28;20499;-60
2022/01/11 02:58:37;;;;;;;23.07;14.93;;;4.20;77.00;;;6.98;59.88;103142.00;5074542;28;20546;-59
2022/01/11 03:01:07;;;;;;;17.00;13.23;;;4.20;77.10;;;6.96;59.22;103144.72;5074232;28;20193;-62
2022/01/11 03:03:35;;;;;;;19.53;14.40;;;4.20;77.20;;;6.97;59.64;103138.53;5073905;28;20274;-60
2022/01/11 03:06:04;;;;;;;25.60;15.63;;;4.10;77.50;;;7.05;60.54;103141.53;5074071;28;20193;-61
2022/01/11 03:08:36;;;;;;;17.17;14.07;;;4.10;78.20;;;7.11;59.96;103145.56;5074547;28;20201;-61
2022/01/11 03:11:06;;;;;;;21.47;13.53;;;4.20;77.80;;;7.14;59.76;103134.91;5074128;28;20199;-62
2022/01/11 03:13:35;;;;;;;15.00;12.50;;;4.20;77.70;;;7.19;59.65;103144.16;5073683;28;20226;-61
2022/01/11 03:16:03;;;;;;;17.63;13.00;;;4.20;77.80;;;7.23;59.42;103147.44;5074408;28;20191;-60
2022/01/11 03:18:31;;;;;;;21.87;15.33;;;4.20;77.80;;;7.28;59.77;103148.00;5074031;28;20680;-60
2022/01/11 03:20:59;;;;;;;18.87;13.77;;;4.20;78.30;;;7.33;59.26;103146.78;5074354;28;20186;-62
2022/01/11 03:23:26;;;;;;;18.57;14.43;;;4.30;78.40;;;7.40;59.97;103147.25;5072777;28;20709;-58
2022/01/11 03:25:54;;;;;;;18.47;14.67;;;4.30;79.00;;;7.48;59.16;103158.09;5074040;28;20330;-60
2022/01/11 03:28:24;;;;;;;16.27;12.17;;;4.40;78.40;;;7.50;59.15;103158.84;5074076;28;20269;-62
2022/01/11 03:30:52;;;;;;;16.63;13.40;;;4.50;77.60;;;7.50;58.81;103158.84;5074160;28;20189;-59
2022/01/11 03:33:20;;;;;;;14.80;11.63;;;4.50;76.90;;;7.46;58.54;103152.94;5073082;28;20678;-61
2022/01/11 03:35:49;;;;;;;16.33;13.40;;;4.50;76.60;;;7.38;58.05;103157.84;5074439;28;20195;-62
2022/01/11 03:38:18;;;;;;;18.60;12.57;;;4.40;76.20;;;7.29;58.30;103162.78;5074028;28;20212;-58
2022/01/11 03:40:45;;;;;;;13.70;10.63;;;4.40;76.00;;;7.20;58.44;103165.97;5075224;28;20203;-62
2022/01/11 03:43:13;;;;;;;21.43;13.53;;;4.40;76.20;;;7.18;58.99;103157.38;5074235;28;20259;-59
2022/01/11 03:45:41;;;;;;;18.90;13.07;;;4.30;76.90;;;7.18;58.42;103160.81;5074224;28;20202;-61
2022/01/11 03:48:09;;;;;;;14.53;11.87;;;4.30;76.30;;;7.16;58.65;103164.44;5074655;28;20221;-61
2022/01/11 03:50:37;;;;;;;21.47;13.90;;;4.30;76.00;;;7.12;58.71;103157.72;5073636;28;20199;-59
2022/01/11 03:53:15;;;;;;;22.20;12.87;;;4.30;76.00;;;7.11;58.68;103161.25;5073141;28;20769;-60
2022/01/11 03:58:25;;;;;;;15.87;11.27;;;4.20;76.20;;;7.06;59.22;103169.41;5073915;28;20201;-60
2022/01/11 04:00:55;;;;;;;16.37;12.87;;;4.20;76.60;;;7.12;58.91;103162.97;5073465;28;20679;-61
2022/01/11 04:03:24;;;;;;;25.43;13.60;;;4.20;77.50;;;7.21;58.77;103172.88;5073570;28;20208;-61
2022/01/11 04:05:52;;;;;;;18.93;13.00;;;4.20;77.40;;;7.26;58.82;103166.44;5073103;28;20192;-59
2022/01/11 04:08:22;;;;;;;15.60;11.57;;;4.30;77.10;;;7.30;58.72;103161.84;5072750;28;20514;-62
2022/01/11 04:10:50;;;;;;;16.40;12.93;;;4.30;76.60;;;7.31;58.30;103168.78;5073611;28;20199;-62
2022/01/11 04:13:17;;;;;;;18.50;12.93;;;4.30;76.30;;;7.33;58.33;103161.66;5072944;28;20219;-59
2022/01/11 04:15:45;;;;;;;14.83;12.30;;;4.30;76.40;;;7.33;58.47;103167.75;5073652;28;20189;-59
2022/01/11 04:18:13;;;;;;;24.10;13.57;;;4.30;76.40;;;7.37;58.19;103163.16;5073314;28;20650;-59
2022/01/11 04:20:41;;;;;;;13.63;11.40;;;4.40;76.50;;;7.39;58.06;103169.16;5074131;28;20272;-59
2022/01/11 04:23:12;;;;;;;24.77;12.57;;;4.40;76.00;;;7.36;57.25;103177.19;5073408;28;20290;-60
2022/01/11 04:25:39;;;;;;;19.60;11.60;;;4.40;75.60;;;7.30;57.87;103169.69;5073562;28;20230;-59
2022/01/11 04:28:07;;;;;;;25.17;12.47;;;4.40;75.20;;;7.24;57.59;103172.69;5073126;28;20638;-62
2022/01/11 04:30:35;;;;;;;14.03;11.53;;;4.30;75.20;;;7.16;58.13;103172.31;5073946;28;20218;-62
2022/01/11 04:33:02;;;;;;;26.37;12.73;;;4.30;75.20;;;7.12;57.73;103181.28;5072444;28;20550;-61
2022/01/11 04:35:34;;;;;;;11.97;10.23;;;4.30;75.20;;;7.05;57.90;103172.13;5075482;28;20196;-61
2022/01/11 04:38:02;;;;;;;20.03;12.07;;;4.20;75.10;;;7.04;58.31;103171.28;5077556;28;20196;-61
2022/01/11 04:40:30;;;;;;;15.37;11.27;;;4.30;75.50;;;7.02;57.85;103165.28;5077022;28;20193;-59
2022/01/11 04:42:57;;;;;;;15.40;12.00;;;4.20;75.10;;;7.02;58.07;103164.44;5076569;28;20282;-61
2022/01/11 04:45:24;;;;;;;11.93;10.73;;;4.20;75.10;;;6.95;57.40;103161.34;5077344;28;20650;-60
2022/01/11 04:47:56;;;;;;;14.47;11.90;;;4.10;74.70;;;6.91;58.01;103167.72;5077108;28;20189;-61
2022/01/11 04:50:25;;;;;;;25.47;11.73;;;4.10;74.90;;;6.93;58.52;103167.59;5076743;28;20207;-60
2022/01/11 04:52:55;;;;;;;14.47;10.37;;;4.00;75.60;;;6.97;57.79;103154.25;5076691;28;20211;-60
2022/01/11 04:55:23;;;;;;;14.27;11.33;;;4.00;75.30;;;6.99;57.96;103167.25;5076582;28;20196;-61
2022/01/11 04:57:51;;;;;;;17.27;12.13;;;4.00;75.70;;;6.98;57.83;103170.78;5076870;28;20182;-62
2022/01/11 05:00:22;;;;;;;14.87;12.37;;;4.00;75.40;;;6.94;57.38;103166.69;5076693;28;20530;-59
2022/01/11 05:02:49;;;;;;;16.40;10.93;;;4.00;75.30;;;6.90;57.98;103178.25;5076503;28;20261;-61
2022/01/11 05:05:17;;;;;;;14.87;11.30;;;4.00;75.10;;;6.87;58.44;103173.22;5077207;28;20191;-61
2022/01/11 05:07:46;;;;;;;19.37;13.90;;;3.90;75.30;;;6.81;57.63;103163.94;5076464;28;20191;-59
2022/01/11 05:10:15;;;;;;;24.57;12.70;;;3.90;75.00;;;6.74;57.85;103168.69;5076351;28;20189;-61
2022/01/11 05:12:42;;;;;;;36.00;13.33;;;3.90;74.90;;;6.69;58.42;103168.13;5075668;28;20197;-60
2022/01/11 05:15:11;;;;;;;16.97;12.33;;;3.80;75.00;;;6.69;58.33;103170.75;5075880;28;20223;-62
2022/01/11 05:17:40;;;;;;;17.33;11.93;;;3.80;75.60;;;6.75;57.90;103175.59;5075641;28;20201;-59
2022/01/11 05:20:10;;;;;;;20.77;12.03;;;3.80;76.10;;;6.79;57.49;103171.03;5076186;28;20209;-60
2022/01/11 05:22:38;;;;;;;26.27;11.70;;;3.80;75.90;;;6.79;58.16;103178.91;5075525;28;20201;-60
2022/01/11 05:25:07;;;;;;;22.53;12.90;;;3.80;75.60;;;6.70;57.70;103182.88;5076501;28;20212;-58
2022/01/11 05:27:35;;;;;;;40.60;12.80;;;3.80;75.20;;;6.58;57.48;103193.22;5076284;28;20293;-60
2022/01/11 05:30:06;;;;;;;12.07;10.73;;;3.80;74.90;;;6.47;57.80;103191.22;5076410;28;20187;-61
2022/01/11 05:32:35;;;;;;;30.00;13.40;;;3.70;74.90;;;6.47;58.42;103190.34;5076198;28;20185;-63
2022/01/11 05:35:05;;;;;;;16.67;12.53;;;3.70;76.00;;;6.52;58.63;103199.63;5075745;28;20216;-61
2022/01/11 05:37:33;;;;;;;23.10;13.37;;;3.70;76.20;;;6.63;57.83;103199.03;5076316;28;20197;-60
2022/01/11 05:40:01;;;;;;;23.80;12.57;;;3.70;76.00;;;6.64;58.71;103200.72;5076205;28;20517;-59
2022/01/11 05:42:28;;;;;;;22.43;13.07;;;3.70;75.70;;;6.64;57.96;103201.56;5075457;28;20264;-62
2022/01/11 05:44:57;;;;;;;15.00;12.23;;;3.80;75.40;;;6.60;58.01;103210.53;5075442;28;20210;-60
2022/01/11 05:47:25;;;;;;;46.63;15.17;;;3.80;75.00;;;6.54;58.03;103205.63;5074940;28;20190;-62
2022/01/11 05:49:52;;;;;;;24.20;11.47;;;3.80;74.80;;;6.48;57.88;103208.59;5075615;28;20197;-61
2022/01/11 05:52:19;;;;;;;21.37;13.63;;;3.70;74.80;;;6.43;57.37;103215.00;5075030;28;20566;-63
2022/01/11 05:54:47;;;;;;;29.47;13.20;;;3.70;74.40;;;6.38;57.67;103202.19;5075812;28;20220;-61
2022/01/11 05:57:14;;;;;;;19.57;12.67;;;3.60;74.30;;;6.40;58.59;103202.09;5075728;28;20275;-63
2022/01/11 05:59:41;;;;;;;39.93;14.77;;;3.60;75.10;;;6.44;58.09;103196.59;5075236;28;20269;-63
2022/01/11 06:02:10;;;;;;;29.13;13.97;;;3.60;75.50;;;6.49;58.17;103202.41;5075393;28;20336;-59
2022/01/11 06:04:38;;;;;;;28.77;15.37;;;3.60;75.70;;;6.56;58.60;103206.38;5074903;28;20623;-62
2022/01/11 06:07:05;;;;;;;27.23;15.50;;;3.60;76.00;;;6.64;58.13;103206.78;5075611;28;20186;-61
2022/01/11 06:09:33;;;;;;;30.97;16.40;;;3.70;76.10;;;6.70;57.94;103203.81;5075426;28;20276;-60
2022/01/11 06:12:00;;;;;;;53.90;15.47;;;3.70;75.90;;;6.71;58.01;103210.72;5075581;28;20191;-62
2022/01/11 06:14:27;;;;;;;35.70;15.13;;;3.70;75.40;;;6.69;58.43;103212.59;5074471;28;20244;-62
2022/01/11 06:16:54;;;;;;;45.10;13.97;;;3.70;75.30;;;6.71;58.21;103223.81;5075152;28;20560;-61
2022/01/11 06:19:27;;;;;;;35.27;14.13;;;3.70;75.50;;;6.67;57.66;103211.84;5074917;28;20273;-63
2022/01/11 06:21:54;;;;;;;19.50;13.43;;;3.70;75.20;;;6.57;58.17;103210.69;5075027;28;20277;-60
2022/01/11 06:24:21;;;;;;;50.27;16.03;;;3.70;75.90;;;6.54;58.24;103208.25;5073497;28;20230;-60
2022/01/11 06:26:48;;;;;;;18.67;12.93;;;3.70;75.50;;;6.57;58.41;103212.44;5074473;28;20190;-60
2022/01/11 06:29:16;;;;;;;20.10;13.47;;;3.70;75.60;;;6.62;58.97;103216.50;5074254;28;20193;-62
2022/01/11 06:31:43;;;;;;;38.07;14.37;;;3.70;76.10;;;6.63;58.52;103218.16;5073632;28;20260;-63
2022/01/11 06:34:11;;;;;;;18.67;13.33;;;3.80;75.90;;;6.60;57.79;103217.53;5073496;28;20229;-62
2022/01/11 06:36:39;;;;;;;25.07;12.87;;;3.80;75.50;;;6.60;58.23;103222.75;5074614;28;20198;-62
2022/01/11 06:39:07;;;;;;;40.40;15.40;;;3.70;75.40;;;6.60;58.87;103215.75;5074855;28;20198;-59
2022/01/11 06:41:35;;;;;;;20.33;13.33;;;3.70;75.90;;;6.63;57.96;103223.41;5073435;28;20293;-62
2022/01/11 06:44:05;;;;;;;22.40;14.50;;;3.70;76.00;;;6.62;58.77;103220.88;5073519;28;20261;-60
2022/01/11 06:46:32;;;;;;;35.73;16.93;;;3.70;75.70;;;6.60;58.81;103221.00;5073602;28;20275;-62
2022/01/11 06:49:01;;;;;;;38.10;15.33;;;3.70;75.80;;;6.62;58.33;103216.50;5074373;28;20512;-60
2022/01/11 06:51:28;;;;;;;33.37;16.10;;;3.70;76.00;;;6.62;57.96;103226.97;5074882;28;20185;-63
2022/01/11 06:53:57;;;;;;;26.23;14.30;;;3.70;75.90;;;6.54;58.34;103228.31;5073904;28;20218;-62
2022/01/11 06:56:24;;;;;;;47.13;16.60;;;3.70;75.50;;;6.47;58.86;103233.06;5074218;28;20222;-62
2022/01/11 06:58:52;;;;;;;23.07;14.73;;;3.70;75.50;;;6.46;58.66;103236.63;5074016;28;20630;-62
2022/01/11 07:01:19;;;;;;;23.60;16.40;;;3.60;76.00;;;6.51;59.35;103237.19;5071147;28;20212;-61
2022/01/11 07:03:47;;;;;;;20.60;15.23;;;3.70;77.00;;;6.61;59.95;103240.97;5064886;28;20226;-62
2022/01/11 07:06:14;;;;;;;22.77;14.33;;;3.70;77.30;;;6.63;58.37;103231.25;5072276;28;20717;-63
2022/01/11 07:08:41;;;;;;;23.73;13.57;;;3.80;76.60;;;6.57;59.19;103239.47;5053783;28;20227;-63
2022/01/11 07:11:11;;;;;;;19.57;13.63;;;3.80;75.90;;;6.50;58.42;103235.50;5058402;28;20196;-62
2022/01/11 07:13:39;;;;;;;22.67;15.80;;;3.80;75.70;;;6.50;59.18;103238.13;5053415;28;20297;-63
2022/01/11 07:16:06;;;;;;;23.43;13.40;;;3.80;76.00;;;6.50;58.44;103245.97;5054631;28;20267;-60
2022/01/11 07:18:33;;;;;;;32.80;14.27;;;3.70;75.90;;;6.46;58.67;103244.47;5073350;28;20189;-63
2022/01/11 07:21:19;;;;;;;23.17;13.27;;;3.70;75.70;;;6.37;58.44;103239.72;5073354;28;20190;-64
2022/01/11 07:23:46;;;;;;;18.47;13.67;;;3.60;75.60;;;6.30;59.02;103246.22;5087168;28;20288;-63
2022/01/11 07:26:18;;;;;;;16.87;13.20;;;3.60;75.50;;;6.28;59.01;103252.47;5089176;28;20284;-64
2022/01/11 07:28:46;;;;;;;22.93;14.60;;;3.60;75.80;;;6.29;59.05;103247.16;5063508;28;20576;-61
2022/01/11 07:31:14;;;;;;;19.93;13.47;;;3.60;76.10;;;6.36;59.01;103265.97;5051651;28;20216;-63
2022/01/11 07:33:41;;;;;;;17.87;13.10;;;3.50;76.40;;;6.42;59.46;103256.00;5065521;28;20305;-63
2022/01/11 07:36:09;;;;;;;21.83;13.80;;;3.60;76.80;;;6.49;59.18;103259.97;5072925;28;20206;-63
2022/01/11 07:38:36;;;;;;;22.23;14.77;;;3.60;76.70;;;6.56;58.66;103261.31;5072999;28;20531;-63
2022/01/11 07:41:05;;;;;;;17.83;13.33;;;3.70;77.00;;;6.59;58.42;103258.53;5071978;28;20191;-62
2022/01/11 07:43:34;;;;;;;20.97;13.00;;;3.70;76.20;;;6.62;58.72;103258.38;5086282;28;20213;-62
2022/01/11 07:46:04;;;;;;;16.87;13.73;;;3.70;76.20;;;6.66;58.56;103266.88;5071681;28;20242;-64
2022/01/11 07:48:32;;;;;;;62.13;38.03;;;3.70;76.20;;;6.76;58.84;103266.28;5065795;28;20227;-62
2022/01/11 07:50:59;;;;;;;32.37;16.93;;;3.80;77.00;;;6.88;58.62;103269.09;5069793;28;20194;-63
2022/01/11 07:53:27;;;;;;;17.93;12.53;;;3.90;77.00;;;6.89;58.20;103273.44;5070706;28;20223;-64
2022/01/11 07:55:55;;;;;;;21.23;11.67;;;3.90;76.20;;;6.91;57.86;103268.94;5071089;28;20783;-63
2022/01/11 07:58:23;;;;;;;19.77;11.20;;;4.00;75.80;;;6.87;58.20;103268.25;5069703;28;20205;-62
2022/01/11 08:00:51;;;;;;;26.57;11.73;;;3.90;75.30;;;6.82;58.02;103267.72;5078453;28;20201;-62
2022/01/11 08:03:20;;;;;;;18.87;12.00;;;4.00;75.10;;;6.70;58.53;103261.38;5088140;28;20708;-63
2022/01/11 08:05:47;;;;;;;18.53;11.13;;;3.90;75.00;;;6.60;58.87;103265.47;5077433;28;20186;-61
2022/01/11 08:08:15;;;;;;;15.07;11.67;;;3.80;75.00;;;6.50;58.55;103264.28;5075354;28;20198;-60
2022/01/11 08:10:43;;;;;;;34.23;12.70;;;3.80;75.20;;;6.42;59.37;103260.41;5073945;28;20218;-64
2022/01/11 08:13:11;;;;;;;17.43;11.90;;;3.80;75.50;;;6.35;59.19;103265.13;5054615;28;20298;-61
2022/01/11 08:15:40;;;;;;;24.87;13.40;;;3.70;75.60;;;6.28;59.35;103268.16;5069204;28;20210;-62
2022/01/11 08:18:09;;;;;;;16.30;11.70;;;3.60;75.80;;;6.20;59.72;103270.38;5069882;28;20185;-61
2022/01/11 08:20:37;;;;;;;17.17;12.60;;;3.60;76.10;;;6.20;60.60;103267.75;5054081;28;20200;-61
2022/01/11 08:23:04;;;;;;;21.40;11.97;;;3.60;76.80;;;6.31;60.13;103266.22;5073183;28;20201;-62
2022/01/11 08:25:32;;;;;;;21.23;11.83;;;3.60;77.30;;;6.37;59.48;103270.28;5073099;28;20507;-63
2022/01/11 08:28:01;;;;;;;16.97;11.07;;;3.60;77.20;;;6.36;59.44;103272.06;5072184;28;20196;-61
2022/01/11 08:30:28;;;;;;;15.33;10.47;;;3.60;77.00;;;6.40;60.13;103276.19;5070971;28;20197;-62
2022/01/11 08:32:55;;;;;;;18.33;11.83;;;3.60;76.90;;;6.46;60.25;103278.47;5068664;28;20214;-61
2022/01/11 08:35:24;;;;;;;17.20;12.83;;;3.60;77.10;;;6.55;59.37;103280.56;5057242;28;20305;-62
2022/01/11 08:37:52;;;;;;;15.67;12.50;;;3.70;77.60;;;6.71;60.14;103283.16;5064034;28;20215;-60
2022/01/11 08:40:19;;;;;;;18.13;11.53;;;3.70;78.10;;;6.82;59.42;103281.63;5071447;28;20201;-59
2022/01/11 08:42:46;;;;;;;13.60;10.20;;;3.80;77.60;;;6.91;58.74;103289.88;5059160;28;20564;-58
2022/01/11 08:45:14;;;;;;;18.60;14.70;;;3.90;77.20;;;6.96;58.99;103296.56;5065854;28;20194;-61
2022/01/11 08:47:42;;;;;;;14.63;9.47;;;3.90;77.20;;;7.03;58.65;103291.81;5073391;28;20546;-63
2022/01/11 08:50:14;;;;;;;14.33;10.67;;;4.00;77.00;;;7.01;58.07;103296.28;5075477;28;20646;-61
2022/01/11 08:52:45;;;;;;;14.80;9.83;;;4.10;76.20;;;6.95;57.92;103299.25;5069131;28;20277;-62
2022/01/11 08:55:13;;;;;;;14.63;10.17;;;4.10;75.50;;;6.86;58.02;103291.91;5071912;28;20203;-61
2022/01/11 08:57:41;;;;;;;25.77;16.00;;;4.10;75.40;;;6.87;58.84;103299.66;5066724;28;20292;-60
2022/01/11 09:00:16;;;;;;;14.20;11.33;;;4.00;75.80;;;7.00;58.83;103297.19;5069057;28;20195;-65
2022/01/11 09:02:45;;;;;;;15.37;11.20;;;4.10;76.50;;;7.09;58.48;103299.28;5058502;28;20563;-61
2022/01/11 09:05:16;;;;;;;15.10;11.40;;;4.10;76.20;;;7.18;58.29;103299.59;5074355;28;20599;-64
2022/01/11 09:07:45;;;;;;;10.77;9.27;;;4.20;76.30;;;7.26;57.91;103299.16;5069800;28;20208;-60
2022/01/11 09:10:14;;;;;;;14.97;10.33;;;4.20;75.90;;;7.17;57.23;103303.16;5065759;28;20205;-62
2022/01/11 09:12:43;;;;;;;11.03;9.60;;;4.30;75.20;;;7.09;57.76;103299.28;5066626;28;20222;-61
2022/01/11 09:15:10;;;;;;;13.13;9.80;;;4.30;74.90;;;7.09;57.91;103299.28;5072209;28;20335;-62
2022/01/11 09:17:38;;;;;;;14.23;10.27;;;4.30;75.20;;;7.10;57.91;103300.97;5064215;28;20193;-61
2022/01/11 09:20:10;;;;;;;13.67;9.70;;;4.30;74.80;;;7.10;57.16;103301.84;5064310;28;20198;-60
2022/01/11 09:22:38;;;;;;;12.87;10.03;;;4.30;74.60;;;7.08;57.27;103303.72;5064575;28;20281;-62
2022/01/11 09:25:09;;;;;;;14.83;9.53;;;4.30;74.40;;;7.00;56.98;103315.53;5086936;28;20198;-62
2022/01/11 09:27:37;;;;;;;13.37;10.10;;;4.20;74.00;;;6.99;57.82;103309.44;5075708;28;20204;-62
2022/01/11 09:30:08;;;;;;;14.40;9.90;;;4.20;75.50;;;7.07;57.49;103316.88;5064663;28;20194;-61
2022/01/11 09:32:37;;;;;;;13.60;9.97;;;4.20;75.00;;;7.05;56.89;103323.97;5085441;28;20562;-64
2022/01/11 09:35:07;;;;;;;13.77;10.20;;;4.20;74.30;;;6.95;57.63;103325.41;5074499;28;20218;-61
2022/01/11 09:37:34;;;;;;;13.43;9.73;;;4.20;74.10;;;6.86;57.89;103321.56;5073456;28;20203;-61
2022/01/11 09:40:04;;;;;;;14.10;8.80;;;4.20;74.10;;;6.83;58.14;103330.41;5071080;28;20202;-62
2022/01/11 09:42:33;;;;;;;12.93;9.60;;;4.20;74.20;;;6.85;57.79;103324.28;5072482;28;20214;-63
2022/01/11 09:45:01;;;;;;;24.47;14.77;;;4.10;74.40;;;6.86;58.15;103320.72;5071814;28;20222;-64
2022/01/11 09:47:28;;;;;;;12.97;10.20;;;4.10;74.40;;;6.92;58.20;103323.00;5076041;28;20228;-63
2022/01/11 09:49:56;;;;;;;14.60;10.20;;;4.10;74.70;;;6.97;57.73;103328.78;5052480;28;20644;-63
2022/01/11 09:52:26;;;;;;;14.50;11.30;;;4.10;74.70;;;6.99;58.06;103317.28;5065150;28;20190;-62
2022/01/11 09:54:55;;;;;;;11.60;8.50;;;4.20;74.60;;;7.05;58.18;103318.72;5067858;28;20290;-61
2022/01/11 09:57:23;;;;;;;12.43;10.43;;;4.20;74.70;;;7.07;57.85;103315.09;5073562;28;20484;-63
2022/01/11 09:59:52;;;;;;;14.67;10.03;;;4.20;74.60;;;7.16;57.97;103313.72;5073995;28;20266;-63
2022/01/11 10:02:19;;;;;;;13.20;10.57;;;4.30;74.80;;;7.21;56.87;103319.53;5054378;28;20217;-60
2022/01/11 10:04:56;;;;;;;13.60;9.60;;;4.30;74.60;;;7.18;56.87;103317.09;5043510;28;20226;-62
2022/01/11 10:07:29;;;;;;;19.93;13.63;;;4.40;74.20;;;7.16;57.47;103321.56;5078067;28;20225;-59
2022/01/11 10:09:57;;;;;;;14.47;10.00;;;4.40;74.90;;;7.18;57.52;103325.78;5069253;28;20215;-59
2022/01/11 10:12:26;;;;;;;12.47;10.03;;;4.40;74.20;;;7.25;57.64;103326.28;5072449;28;20252;-61
2022/01/11 10:14:58;;;;;;;17.03;11.37;;;4.40;74.20;;;7.41;57.34;103330.56;5088940;28;20308;-61
2022/01/11 10:17:29;;;;;;;11.23;9.30;;;4.50;74.80;;;7.59;57.20;103331.22;5073760;28;20208;-61
2022/01/11 10:20:04;;;;;;;12.83;10.27;;;4.60;74.70;;;7.72;56.40;103321.72;5074254;28;20276;-59
2022/01/11 10:22:31;;;;;;;13.17;10.53;;;4.70;74.10;;;7.84;56.45;103320.97;5073681;28;20192;-63